sensor_id;sensor_type;location;lat;lon;timestamp;temperature;humidity
4201;DHT22;2114;50.398;8.814;2022-08-03T00:03:35;23.10;68.80
4201;DHT22;2114;50.398;8.814;2022-08-03T00:08:36;23.00;69.00
4201;DHT22;2114;50.398;8.814;2022-08-03T00:13:36;22.90;68.70
4201;DHT22;2114;50.398;8.814;2022-08-03T00:18:37;22.80;69.00
4201;DHT22;2114;50.398;8.814;2022-08-03T00:23:37;22.80;69.30
4201;DHT22;2114;50.398;8.814;2022-08-03T00:28:38;22.70;70.00
4201;DHT22;2114;50.398;8.814;2022-08-03T00:33:39;22.60;69.80
4201;DHT22;2114;50.398;8.814;2022-08-03T00:38:40;22.50;70.10
4201;DHT22;2114;50.398;8.814;2022-08-03T00:43:40;22.40;70.50
4201;DHT22;2114;50.398;8.814;2022-08-03T00:48:41;22.30;71.00
4201;DHT22;2114;50.398;8.814;2022-08-03T00:53:42;22.20;71.30
4201;DHT22;2114;50.398;8.814;2022-08-03T00:58:44;22.20;71.60
4201;DHT22;2114;50.398;8.814;2022-08-03T01:03:44;22.10;71.60
4201;DHT22;2114;50.398;8.814;2022-08-03T01:19:24;21.90;72.20
4201;DHT22;2114;50.398;8.814;2022-08-03T01:25:13;21.90;72.70
4201;DHT22;2114;50.398;8.814;2022-08-03T01:30:07;21.80;73.00
4201;DHT22;2114;50.398;8.814;2022-08-03T01:35:14;21.90;72.60
4201;DHT22;2114;50.398;8.814;2022-08-03T01:40:17;21.80;72.80
4201;DHT22;2114;50.398;8.814;2022-08-03T01:45:21;21.70;73.20
4201;DHT22;2114;50.398;8.814;2022-08-03T01:50:25;21.70;73.60
4201;DHT22;2114;50.398;8.814;2022-08-03T01:55:28;21.60;73.50
4201;DHT22;2114;50.398;8.814;2022-08-03T02:00:32;21.60;74.50
4201;DHT22;2114;50.398;8.814;2022-08-03T02:05:33;21.50;73.90
4201;DHT22;2114;50.398;8.814;2022-08-03T02:10:35;21.40;74.30
4201;DHT22;2114;50.398;8.814;2022-08-03T02:15:37;21.40;74.70
4201;DHT22;2114;50.398;8.814;2022-08-03T02:20:40;21.40;74.80
4201;DHT22;2114;50.398;8.814;2022-08-03T02:25:44;21.30;74.80
4201;DHT22;2114;50.398;8.814;2022-08-03T02:30:50;21.20;75.40
4201;DHT22;2114;50.398;8.814;2022-08-03T02:35:51;21.20;75.70
4201;DHT22;2114;50.398;8.814;2022-08-03T02:40:54;21.20;75.90
4201;DHT22;2114;50.398;8.814;2022-08-03T02:45:56;21.20;76.20
4201;DHT22;2114;50.398;8.814;2022-08-03T02:50:58;21.10;76.20
4201;DHT22;2114;50.398;8.814;2022-08-03T02:56:00;21.00;76.80
4201;DHT22;2114;50.398;8.814;2022-08-03T03:01:02;20.90;76.80
4201;DHT22;2114;50.398;8.814;2022-08-03T03:06:03;20.80;77.10
4201;DHT22;2114;50.398;8.814;2022-08-03T03:11:04;20.80;77.70
4201;DHT22;2114;50.398;8.814;2022-08-03T03:16:07;20.70;77.80
4201;DHT22;2114;50.398;8.814;2022-08-03T03:21:09;20.50;78.30
4201;DHT22;2114;50.398;8.814;2022-08-03T03:26:12;20.40;78.60
4201;DHT22;2114;50.398;8.814;2022-08-03T03:31:13;20.40;79.30
4201;DHT22;2114;50.398;8.814;2022-08-03T03:36:14;20.30;79.60
4201;DHT22;2114;50.398;8.814;2022-08-03T03:41:15;20.30;80.10
4201;DHT22;2114;50.398;8.814;2022-08-03T03:46:15;20.30;82.70
4201;DHT22;2114;50.398;8.814;2022-08-03T03:51:16;20.40;82.70
4201;DHT22;2114;50.398;8.814;2022-08-03T03:56:17;20.40;82.50
4201;DHT22;2114;50.398;8.814;2022-08-03T04:01:18;20.40;82.40
4201;DHT22;2114;50.398;8.814;2022-08-03T04:06:19;20.40;82.60
4201;DHT22;2114;50.398;8.814;2022-08-03T04:11:51;20.30;82.60
4201;DHT22;2114;50.398;8.814;2022-08-03T04:17:01;20.20;82.90
4201;DHT22;2114;50.398;8.814;2022-08-03T04:22:05;20.10;83.40
4201;DHT22;2114;50.398;8.814;2022-08-03T04:27:08;20.20;83.20
4201;DHT22;2114;50.398;8.814;2022-08-03T04:32:11;20.10;83.90
4201;DHT22;2114;50.398;8.814;2022-08-03T04:37:18;20.20;83.80
4201;DHT22;2114;50.398;8.814;2022-08-03T04:42:21;20.40;83.80
4201;DHT22;2114;50.398;8.814;2022-08-03T04:47:22;20.40;83.60
4201;DHT22;2114;50.398;8.814;2022-08-03T04:52:23;20.30;84.80
4201;DHT22;2114;50.398;8.814;2022-08-03T04:57:24;20.30;85.30
4201;DHT22;2114;50.398;8.814;2022-08-03T05:02:24;20.30;85.70
4201;DHT22;2114;50.398;8.814;2022-08-03T05:07:25;20.30;86.30
4201;DHT22;2114;50.398;8.814;2022-08-03T05:12:25;20.30;87.00
4201;DHT22;2114;50.398;8.814;2022-08-03T05:17:27;20.40;87.60
4201;DHT22;2114;50.398;8.814;2022-08-03T05:22:28;20.70;88.00
4201;DHT22;2114;50.398;8.814;2022-08-03T05:27:28;21.30;86.80
4201;DHT22;2114;50.398;8.814;2022-08-03T05:32:29;21.70;85.70
4201;DHT22;2114;50.398;8.814;2022-08-03T05:37:29;22.20;84.40
4201;DHT22;2114;50.398;8.814;2022-08-03T05:42:30;22.60;83.60
4201;DHT22;2114;50.398;8.814;2022-08-03T05:47:30;22.90;83.20
4201;DHT22;2114;50.398;8.814;2022-08-03T05:52:31;23.10;82.70
4201;DHT22;2114;50.398;8.814;2022-08-03T05:57:32;23.30;82.30
4201;DHT22;2114;50.398;8.814;2022-08-03T06:02:33;23.40;82.20
4201;DHT22;2114;50.398;8.814;2022-08-03T06:07:33;23.50;82.60
4201;DHT22;2114;50.398;8.814;2022-08-03T06:12:34;23.60;82.70
4201;DHT22;2114;50.398;8.814;2022-08-03T06:17:46;23.80;83.10
4201;DHT22;2114;50.398;8.814;2022-08-03T06:22:48;23.90;82.90
4201;DHT22;2114;50.398;8.814;2022-08-03T06:27:48;24.00;82.90
4201;DHT22;2114;50.398;8.814;2022-08-03T06:32:49;24.20;83.00
4201;DHT22;2114;50.398;8.814;2022-08-03T06:37:50;24.20;83.00
4201;DHT22;2114;50.398;8.814;2022-08-03T06:42:51;24.10;83.40
4201;DHT22;2114;50.398;8.814;2022-08-03T06:48:01;24.00;83.70
4201;DHT22;2114;50.398;8.814;2022-08-03T06:53:03;24.00;84.20
4201;DHT22;2114;50.398;8.814;2022-08-03T06:58:04;24.00;84.70
4201;DHT22;2114;50.398;8.814;2022-08-03T07:03:04;24.20;84.90
4201;DHT22;2114;50.398;8.814;2022-08-03T07:08:05;24.40;87.50
4201;DHT22;2114;50.398;8.814;2022-08-03T07:13:07;24.70;86.80
4201;DHT22;2114;50.398;8.814;2022-08-03T07:18:08;24.90;87.70
4201;DHT22;2114;50.398;8.814;2022-08-03T07:23:08;25.20;86.20
4201;DHT22;2114;50.398;8.814;2022-08-03T07:28:09;25.50;85.90
4201;DHT22;2114;50.398;8.814;2022-08-03T07:33:10;25.70;84.50
4201;DHT22;2114;50.398;8.814;2022-08-03T07:38:10;26.00;83.60
4201;DHT22;2114;50.398;8.814;2022-08-03T07:43:11;26.30;82.50
4201;DHT22;2114;50.398;8.814;2022-08-03T07:48:11;26.90;84.70
4201;DHT22;2114;50.398;8.814;2022-08-03T07:53:12;27.50;80.90
4201;DHT22;2114;50.398;8.814;2022-08-03T07:58:12;27.70;80.40
4201;DHT22;2114;50.398;8.814;2022-08-03T08:03:17;28.30;80.70
4201;DHT22;2114;50.398;8.814;2022-08-03T08:08:17;28.50;78.70
4201;DHT22;2114;50.398;8.814;2022-08-03T08:13:18;29.00;76.40
4201;DHT22;2114;50.398;8.814;2022-08-03T08:18:19;29.60;74.90
4201;DHT22;2114;50.398;8.814;2022-08-03T08:23:19;30.10;74.80
4201;DHT22;2114;50.398;8.814;2022-08-03T08:28:23;30.40;74.10
4201;DHT22;2114;50.398;8.814;2022-08-03T08:33:23;31.10;71.40
4201;DHT22;2114;50.398;8.814;2022-08-03T08:38:25;31.10;69.40
4201;DHT22;2114;50.398;8.814;2022-08-03T08:43:26;31.60;68.20
4201;DHT22;2114;50.398;8.814;2022-08-03T08:48:28;32.30;67.20
4201;DHT22;2114;50.398;8.814;2022-08-03T08:53:30;32.70;65.00
4201;DHT22;2114;50.398;8.814;2022-08-03T08:58:37;33.10;66.20
4201;DHT22;2114;50.398;8.814;2022-08-03T09:03:40;33.40;62.40
4201;DHT22;2114;50.398;8.814;2022-08-03T09:08:41;33.90;63.40
4201;DHT22;2114;50.398;8.814;2022-08-03T09:13:42;34.20;60.30
4201;DHT22;2114;50.398;8.814;2022-08-03T09:18:52;34.80;59.30
4201;DHT22;2114;50.398;8.814;2022-08-03T09:23:55;35.20;57.70
4201;DHT22;2114;50.398;8.814;2022-08-03T09:29:00;35.50;58.10
4201;DHT22;2114;50.398;8.814;2022-08-03T09:34:03;35.50;57.50
4201;DHT22;2114;50.398;8.814;2022-08-03T09:39:10;35.80;57.70
4201;DHT22;2114;50.398;8.814;2022-08-03T09:44:11;36.20;55.70
4201;DHT22;2114;50.398;8.814;2022-08-03T09:49:12;36.40;54.90
4201;DHT22;2114;50.398;8.814;2022-08-03T09:54:25;36.90;53.40
4201;DHT22;2114;50.398;8.814;2022-08-03T09:59:28;37.50;51.00
4201;DHT22;2114;50.398;8.814;2022-08-03T10:04:28;37.80;51.20
4201;DHT22;2114;50.398;8.814;2022-08-03T10:09:29;38.50;49.10
4201;DHT22;2114;50.398;8.814;2022-08-03T10:14:30;38.80;48.20
4201;DHT22;2114;50.398;8.814;2022-08-03T10:19:32;39.30;47.80
4201;DHT22;2114;50.398;8.814;2022-08-03T10:24:34;39.30;46.80
4201;DHT22;2114;50.398;8.814;2022-08-03T10:29:38;39.40;46.10
4201;DHT22;2114;50.398;8.814;2022-08-03T10:34:41;39.70;46.60
4201;DHT22;2114;50.398;8.814;2022-08-03T10:39:44;39.90;47.20
4201;DHT22;2114;50.398;8.814;2022-08-03T10:45:02;40.50;45.20
4201;DHT22;2114;50.398;8.814;2022-08-03T10:50:03;40.80;45.10
4201;DHT22;2114;50.398;8.814;2022-08-03T11:00:52;40.70;44.60
4201;DHT22;2114;50.398;8.814;2022-08-03T11:06:19;41.10;44.70
4201;DHT22;2114;50.398;8.814;2022-08-03T11:16:25;42.00;42.90
4201;DHT22;2114;50.398;8.814;2022-08-03T11:27:19;41.70;42.90
4201;DHT22;2114;50.398;8.814;2022-08-03T11:43:44;42.10;41.70
4201;DHT22;2114;50.398;8.814;2022-08-03T11:48:39;42.20;41.10
4201;DHT22;2114;50.398;8.814;2022-08-03T11:53:42;41.80;41.60
4201;DHT22;2114;50.398;8.814;2022-08-03T11:58:48;42.20;40.90
4201;DHT22;2114;50.398;8.814;2022-08-03T12:03:49;42.10;40.70
4201;DHT22;2114;50.398;8.814;2022-08-03T12:08:50;42.50;41.20
4201;DHT22;2114;50.398;8.814;2022-08-03T12:13:51;43.20;39.40
4201;DHT22;2114;50.398;8.814;2022-08-03T12:18:59;43.50;39.80
4201;DHT22;2114;50.398;8.814;2022-08-03T12:24:03;43.90;39.10
4201;DHT22;2114;50.398;8.814;2022-08-03T12:29:03;43.90;38.10
4201;DHT22;2114;50.398;8.814;2022-08-03T12:34:04;43.80;38.70
4201;DHT22;2114;50.398;8.814;2022-08-03T12:39:08;43.80;38.00
4201;DHT22;2114;50.398;8.814;2022-08-03T12:44:11;44.00;37.60
4201;DHT22;2114;50.398;8.814;2022-08-03T12:49:13;44.30;37.00
4201;DHT22;2114;50.398;8.814;2022-08-03T12:54:19;44.10;38.00
4201;DHT22;2114;50.398;8.814;2022-08-03T12:59:34;44.00;38.30
4201;DHT22;2114;50.398;8.814;2022-08-03T13:04:35;44.30;36.80
4201;DHT22;2114;50.398;8.814;2022-08-03T13:09:41;44.40;36.90
4201;DHT22;2114;50.398;8.814;2022-08-03T13:14:46;44.10;36.70
4201;DHT22;2114;50.398;8.814;2022-08-03T13:19:48;43.70;37.10
4201;DHT22;2114;50.398;8.814;2022-08-03T13:24:51;43.10;37.60
4201;DHT22;2114;50.398;8.814;2022-08-03T13:29:52;43.20;38.10
4201;DHT22;2114;50.398;8.814;2022-08-03T13:34:53;43.70;36.60
4201;DHT22;2114;50.398;8.814;2022-08-03T13:39:53;44.10;36.70
4201;DHT22;2114;50.398;8.814;2022-08-03T13:44:54;44.10;36.50
4201;DHT22;2114;50.398;8.814;2022-08-03T13:49:55;43.90;37.10
4201;DHT22;2114;50.398;8.814;2022-08-03T13:54:56;44.20;36.10
4201;DHT22;2114;50.398;8.814;2022-08-03T13:59:56;44.50;35.80
4201;DHT22;2114;50.398;8.814;2022-08-03T14:04:57;44.70;35.10
4201;DHT22;2114;50.398;8.814;2022-08-03T14:09:58;44.40;35.30
4201;DHT22;2114;50.398;8.814;2022-08-03T14:14:58;44.40;35.60
4201;DHT22;2114;50.398;8.814;2022-08-03T14:19:59;44.20;35.80
4201;DHT22;2114;50.398;8.814;2022-08-03T14:25:00;43.90;36.10
4201;DHT22;2114;50.398;8.814;2022-08-03T14:30:00;44.00;35.80
4201;DHT22;2114;50.398;8.814;2022-08-03T14:35:01;43.20;36.50
4201;DHT22;2114;50.398;8.814;2022-08-03T14:40:02;43.40;36.00
4201;DHT22;2114;50.398;8.814;2022-08-03T14:45:03;43.00;36.30
4201;DHT22;2114;50.398;8.814;2022-08-03T14:50:04;42.70;36.60
4201;DHT22;2114;50.398;8.814;2022-08-03T14:55:05;42.70;36.90
4201;DHT22;2114;50.398;8.814;2022-08-03T15:00:06;43.00;37.00
4201;DHT22;2114;50.398;8.814;2022-08-03T15:05:07;43.40;36.70
4201;DHT22;2114;50.398;8.814;2022-08-03T15:10:10;43.10;36.70
4201;DHT22;2114;50.398;8.814;2022-08-03T15:15:10;43.00;36.10
4201;DHT22;2114;50.398;8.814;2022-08-03T15:20:11;43.20;36.40
4201;DHT22;2114;50.398;8.814;2022-08-03T15:25:11;42.80;36.50
4201;DHT22;2114;50.398;8.814;2022-08-03T15:30:12;42.40;36.60
4201;DHT22;2114;50.398;8.814;2022-08-03T15:35:13;42.70;36.60
4201;DHT22;2114;50.398;8.814;2022-08-03T15:40:13;43.00;35.70
4201;DHT22;2114;50.398;8.814;2022-08-03T15:45:14;43.20;35.10
4201;DHT22;2114;50.398;8.814;2022-08-03T15:50:15;43.00;36.20
4201;DHT22;2114;50.398;8.814;2022-08-03T15:55:15;42.40;36.00
4201;DHT22;2114;50.398;8.814;2022-08-03T16:00:16;42.30;35.90
4201;DHT22;2114;50.398;8.814;2022-08-03T16:05:17;42.10;36.00
4201;DHT22;2114;50.398;8.814;2022-08-03T16:10:19;41.80;36.70
4201;DHT22;2114;50.398;8.814;2022-08-03T16:15:20;41.50;36.60
4201;DHT22;2114;50.398;8.814;2022-08-03T16:20:20;41.20;36.70
4201;DHT22;2114;50.398;8.814;2022-08-03T16:25:21;41.00;37.00
4201;DHT22;2114;50.398;8.814;2022-08-03T16:30:21;41.00;36.80
4201;DHT22;2114;50.398;8.814;2022-08-03T16:35:22;40.90;36.40
4201;DHT22;2114;50.398;8.814;2022-08-03T16:40:24;40.80;36.50
4201;DHT22;2114;50.398;8.814;2022-08-03T16:45:25;40.50;36.60
4201;DHT22;2114;50.398;8.814;2022-08-03T16:50:25;40.20;36.90
4201;DHT22;2114;50.398;8.814;2022-08-03T16:55:26;39.80;37.80
4201;DHT22;2114;50.398;8.814;2022-08-03T17:00:31;39.40;38.30
4201;DHT22;2114;50.398;8.814;2022-08-03T17:05:32;39.20;38.50
4201;DHT22;2114;50.398;8.814;2022-08-03T17:10:32;39.10;38.00
4201;DHT22;2114;50.398;8.814;2022-08-03T17:15:33;39.00;38.60
4201;DHT22;2114;50.398;8.814;2022-08-03T17:20:38;38.90;38.90
4201;DHT22;2114;50.398;8.814;2022-08-03T17:25:40;38.60;39.10
4201;DHT22;2114;50.398;8.814;2022-08-03T17:30:41;38.40;39.20
4201;DHT22;2114;50.398;8.814;2022-08-03T17:36:01;38.20;38.90
4201;DHT22;2114;50.398;8.814;2022-08-03T17:41:02;38.00;39.80
4201;DHT22;2114;50.398;8.814;2022-08-03T17:46:03;37.70;39.80
4201;DHT22;2114;50.398;8.814;2022-08-03T17:56:25;37.20;40.20
4201;DHT22;2114;50.398;8.814;2022-08-03T18:02:00;36.90;40.50
4201;DHT22;2114;50.398;8.814;2022-08-03T18:07:24;36.60;40.80
4201;DHT22;2114;50.398;8.814;2022-08-03T18:12:27;36.10;41.20
4201;DHT22;2114;50.398;8.814;2022-08-03T18:17:32;35.90;41.60
4201;DHT22;2114;50.398;8.814;2022-08-03T18:22:33;35.50;41.80
4201;DHT22;2114;50.398;8.814;2022-08-03T18:27:34;35.20;42.40
4201;DHT22;2114;50.398;8.814;2022-08-03T18:32:35;35.00;43.00
4201;DHT22;2114;50.398;8.814;2022-08-03T18:37:37;34.70;43.80
4201;DHT22;2114;50.398;8.814;2022-08-03T18:42:38;34.40;44.50
4201;DHT22;2114;50.398;8.814;2022-08-03T18:58:08;33.60;46.00
4201;DHT22;2114;50.398;8.814;2022-08-03T19:03:13;33.40;46.50
4201;DHT22;2114;50.398;8.814;2022-08-03T19:08:25;33.20;46.50
4201;DHT22;2114;50.398;8.814;2022-08-03T19:13:37;32.90;46.70
4201;DHT22;2114;50.398;8.814;2022-08-03T19:18:41;32.60;47.30
4201;DHT22;2114;50.398;8.814;2022-08-03T19:23:46;32.40;47.60
4201;DHT22;2114;50.398;8.814;2022-08-03T19:28:49;32.10;48.10
4201;DHT22;2114;50.398;8.814;2022-08-03T19:33:53;31.80;48.30
4201;DHT22;2114;50.398;8.814;2022-08-03T19:38:55;31.60;48.70
4201;DHT22;2114;50.398;8.814;2022-08-03T19:43:58;31.40;48.90
4201;DHT22;2114;50.398;8.814;2022-08-03T19:49:05;31.20;49.20
4201;DHT22;2114;50.398;8.814;2022-08-03T19:54:09;30.90;49.60
4201;DHT22;2114;50.398;8.814;2022-08-03T19:59:13;30.80;49.80
4201;DHT22;2114;50.398;8.814;2022-08-03T20:04:14;30.60;50.20
4201;DHT22;2114;50.398;8.814;2022-08-03T20:09:16;30.40;50.60
4201;DHT22;2114;50.398;8.814;2022-08-03T20:14:17;30.20;50.80
4201;DHT22;2114;50.398;8.814;2022-08-03T20:19:21;30.00;51.00
4201;DHT22;2114;50.398;8.814;2022-08-03T20:24:27;29.90;51.20
4201;DHT22;2114;50.398;8.814;2022-08-03T20:29:35;29.80;51.50
4201;DHT22;2114;50.398;8.814;2022-08-03T20:34:36;29.60;51.90
4201;DHT22;2114;50.398;8.814;2022-08-03T20:39:37;29.50;52.10
4201;DHT22;2114;50.398;8.814;2022-08-03T20:44:38;29.30;52.40
4201;DHT22;2114;50.398;8.814;2022-08-03T20:49:39;29.20;52.70
4201;DHT22;2114;50.398;8.814;2022-08-03T20:54:42;29.10;52.80
4201;DHT22;2114;50.398;8.814;2022-08-03T20:59:44;29.00;53.00
4201;DHT22;2114;50.398;8.814;2022-08-03T21:04:45;28.90;53.20
4201;DHT22;2114;50.398;8.814;2022-08-03T21:09:51;28.70;53.60
4201;DHT22;2114;50.398;8.814;2022-08-03T21:14:58;28.60;53.90
4201;DHT22;2114;50.398;8.814;2022-08-03T21:20:04;28.60;54.00
4201;DHT22;2114;50.398;8.814;2022-08-03T21:25:06;28.50;54.10
4201;DHT22;2114;50.398;8.814;2022-08-03T21:30:09;28.50;54.90
4201;DHT22;2114;50.398;8.814;2022-08-03T21:35:11;28.30;54.40
4201;DHT22;2114;50.398;8.814;2022-08-03T21:40:14;28.10;54.70
4201;DHT22;2114;50.398;8.814;2022-08-03T21:45:15;28.00;55.00
4201;DHT22;2114;50.398;8.814;2022-08-03T21:50:16;28.00;55.20
4201;DHT22;2114;50.398;8.814;2022-08-03T21:55:18;27.90;55.50
4201;DHT22;2114;50.398;8.814;2022-08-03T22:00:21;27.70;55.60
4201;DHT22;2114;50.398;8.814;2022-08-03T22:05:24;27.70;55.90
4201;DHT22;2114;50.398;8.814;2022-08-03T22:10:25;27.50;56.10
4201;DHT22;2114;50.398;8.814;2022-08-03T22:15:28;27.50;56.30
4201;DHT22;2114;50.398;8.814;2022-08-03T22:20:30;27.20;56.20
4201;DHT22;2114;50.398;8.814;2022-08-03T22:25:33;27.20;56.80
4201;DHT22;2114;50.398;8.814;2022-08-03T22:30:34;27.10;57.00
4201;DHT22;2114;50.398;8.814;2022-08-03T22:35:39;27.00;57.20
4201;DHT22;2114;50.398;8.814;2022-08-03T22:40:40;26.90;57.50
4201;DHT22;2114;50.398;8.814;2022-08-03T22:45:44;26.80;58.20
4201;DHT22;2114;50.398;8.814;2022-08-03T22:50:46;26.80;57.70
4201;DHT22;2114;50.398;8.814;2022-08-03T22:55:48;26.70;58.00
4201;DHT22;2114;50.398;8.814;2022-08-03T23:00:56;26.60;58.00
4201;DHT22;2114;50.398;8.814;2022-08-03T23:05:58;26.50;58.30
4201;DHT22;2114;50.398;8.814;2022-08-03T23:11:04;26.40;58.40
4201;DHT22;2114;50.398;8.814;2022-08-03T23:16:07;26.30;58.80
4201;DHT22;2114;50.398;8.814;2022-08-03T23:21:10;26.20;59.10
4201;DHT22;2114;50.398;8.814;2022-08-03T23:26:12;26.10;59.30
4201;DHT22;2114;50.398;8.814;2022-08-03T23:31:17;25.90;59.50
4201;DHT22;2114;50.398;8.814;2022-08-03T23:36:20;25.90;59.80
4201;DHT22;2114;50.398;8.814;2022-08-03T23:41:21;25.90;60.00
4201;DHT22;2114;50.398;8.814;2022-08-03T23:46:22;25.80;59.80
